createdAt,value
2019-03-22T00:07:19.018Z,6.74
2019-03-22T00:12:06.818Z,6.70
2019-03-22T00:16:12.910Z,6.66
2019-03-22T00:20:24.897Z,6.63
2019-03-22T00:24:36.546Z,6.60
2019-03-22T00:29:08.034Z,6.54
2019-03-22T00:33:22.605Z,6.40
2019-03-22T00:37:32.074Z,6.31
2019-03-22T00:41:41.277Z,6.22
2019-03-22T00:46:08.670Z,6.16
2019-03-22T00:50:16.110Z,6.12
2019-03-22T00:54:43.205Z,6.05
2019-03-22T00:58:49.032Z,6.01
2019-03-22T01:12:06.221Z,5.91
2019-03-22T01:16:17.067Z,5.89
2019-03-22T01:20:27.511Z,5.89
2019-03-22T01:24:37.199Z,5.89
2019-03-22T01:28:44.226Z,5.87
2019-03-22T01:32:58.197Z,5.85
2019-03-22T01:37:07.189Z,5.85
2019-03-22T01:41:16.436Z,5.74
2019-03-22T01:45:45.698Z,5.62
2019-03-22T01:49:53.114Z,5.56
2019-03-22T01:54:04.263Z,5.51
2019-03-22T01:58:09.766Z,5.50
2019-03-22T02:02:16.644Z,5.44
2019-03-22T02:06:24.991Z,5.34
2019-03-22T02:10:33.084Z,5.28
2019-03-22T02:14:48.928Z,5.22
2019-03-22T02:19:24.323Z,5.18
2019-03-22T02:23:30.002Z,5.15
2019-03-22T02:27:35.495Z,5.10
2019-03-22T02:31:44.598Z,5.08
2019-03-22T02:35:50.710Z,5.00
2019-03-22T02:39:58.591Z,4.95
2019-03-22T02:44:05.228Z,4.92
2019-03-22T02:48:13.438Z,4.90
2019-03-22T02:52:19.170Z,4.90
2019-03-22T02:56:27.467Z,4.90
2019-03-22T03:00:34.288Z,4.86
2019-03-22T03:04:49.941Z,4.83
2019-03-22T03:08:57.597Z,4.83
2019-03-22T03:13:04.354Z,4.79
2019-03-22T03:17:12.429Z,4.75
2019-03-22T03:21:18.052Z,4.73
2019-03-22T03:25:26.298Z,4.74
2019-03-22T03:29:55.120Z,4.69
2019-03-22T03:34:03.183Z,4.64
2019-03-22T03:38:11.095Z,4.58
2019-03-22T03:42:16.242Z,4.52
2019-03-22T03:46:21.578Z,4.45
2019-03-22T03:50:26.537Z,4.36
2019-03-22T03:54:31.484Z,4.29
2019-03-22T03:58:51.257Z,4.25
2019-03-22T04:02:46.737Z,4.23
2019-03-22T04:06:51.978Z,4.24
2019-03-22T04:10:57.151Z,4.23
2019-03-22T04:15:02.840Z,4.21
2019-03-22T04:19:12.417Z,4.24
2019-03-22T04:23:17.568Z,4.26
2019-03-22T04:27:25.697Z,4.26
2019-03-22T04:31:52.514Z,4.25
2019-03-22T04:35:57.951Z,4.21
2019-03-22T04:40:02.833Z,4.21
2019-03-22T04:44:07.986Z,4.23
2019-03-22T04:48:25.166Z,4.19
2019-03-22T04:52:30.352Z,4.15
2019-03-22T04:56:39.690Z,4.17
2019-03-22T05:00:54.746Z,4.14
2019-03-22T05:05:00.004Z,4.08
2019-03-22T05:09:08.703Z,4.03
2019-03-22T05:13:16.198Z,4.01
2019-03-22T05:17:22.079Z,4.03
2019-03-22T05:21:28.772Z,4.05
2019-03-22T05:25:35.379Z,4.07
2019-03-22T05:29:47.250Z,4.09
2019-03-22T05:33:52.559Z,4.10
2019-03-22T05:38:00.594Z,4.15
2019-03-22T05:42:05.780Z,4.19
2019-03-22T05:46:11.074Z,4.24
2019-03-22T05:50:16.117Z,4.30
2019-03-22T05:54:21.171Z,4.36
2019-03-22T05:58:26.387Z,4.40
2019-03-22T06:02:41.056Z,4.43
2019-03-22T06:06:46.236Z,4.49
2019-03-22T06:10:51.826Z,4.55
2019-03-22T06:14:56.772Z,4.62
2019-03-22T06:19:05.097Z,4.66
2019-03-22T06:23:10.222Z,4.73
2019-03-22T06:27:15.652Z,4.81
2019-03-22T06:31:23.106Z,4.90
2019-03-22T06:35:28.344Z,4.99
2019-03-22T06:39:33.824Z,5.09
2019-03-22T06:43:42.060Z,5.17
2019-03-22T06:47:47.560Z,5.30
2019-03-22T06:51:53.017Z,5.43
2019-03-22T06:55:58.643Z,5.57
2019-03-22T07:00:06.733Z,5.72
2019-03-22T07:04:13.884Z,5.87
2019-03-22T07:08:19.084Z,6.02
2019-03-22T07:12:26.212Z,6.19
2019-03-22T07:16:31.521Z,6.37
2019-03-22T07:20:37.502Z,6.58
2019-03-22T07:24:42.998Z,6.76
2019-03-22T07:28:48.158Z,6.98
2019-03-22T07:32:53.480Z,7.25
2019-03-22T07:36:58.720Z,7.47
2019-03-22T07:41:04.005Z,7.72
2019-03-22T07:45:10.025Z,7.97
2019-03-22T07:49:15.083Z,8.14
2019-03-22T07:53:20.816Z,8.30
2019-03-22T07:57:26.694Z,8.43
2019-03-22T08:01:32.424Z,8.62
2019-03-22T08:05:50.666Z,8.78
2019-03-22T08:09:51.169Z,8.98
2019-03-22T08:13:55.348Z,9.18
2019-03-22T08:18:06.826Z,9.32
2019-03-22T08:22:12.385Z,9.47
2019-03-22T08:26:17.821Z,9.66
2019-03-22T08:30:23.207Z,9.85
2019-03-22T08:34:30.648Z,9.91
2019-03-22T08:38:44.895Z,10.06
2019-03-22T08:42:51.365Z,10.17
2019-03-22T08:46:56.784Z,10.28
2019-03-22T08:51:03.464Z,10.42
2019-03-22T08:55:09.067Z,10.55
2019-03-22T08:59:14.711Z,10.63
2019-03-22T09:03:20.424Z,10.63
2019-03-22T09:07:28.825Z,10.69
2019-03-22T09:11:46.349Z,10.74
2019-03-22T09:15:51.899Z,10.81
2019-03-22T09:19:56.891Z,10.92
2019-03-22T09:24:02.529Z,11.05
2019-03-22T09:28:10.180Z,11.22
2019-03-22T09:32:14.871Z,11.36
2019-03-22T09:36:20.437Z,11.51
2019-03-22T09:40:33.369Z,11.59
2019-03-22T09:44:45.271Z,11.74
2019-03-22T09:48:54.281Z,11.90
2019-03-22T09:53:06.901Z,12.00
2019-03-22T09:57:10.089Z,12.12
2019-03-22T10:06:30.359Z,12.43
2019-03-22T10:10:44.895Z,12.69
2019-03-22T10:15:11.447Z,12.84
2019-03-22T10:19:16.805Z,12.92
2019-03-22T10:23:32.686Z,13.03
2019-03-22T10:28:35.958Z,13.11
2019-03-22T10:33:22.054Z,13.22
2019-03-22T10:42:58.647Z,13.60
2019-03-22T10:47:57.124Z,13.81
2019-03-22T10:52:18.217Z,13.94
2019-03-22T10:56:25.141Z,14.07
2019-03-22T11:01:13.248Z,14.14
2019-03-22T11:05:18.919Z,14.31
2019-03-22T11:09:30.271Z,14.42
2019-03-22T11:13:35.600Z,14.44
2019-03-22T11:17:41.570Z,14.47
2019-03-22T11:21:48.002Z,14.47
2019-03-22T11:26:00.268Z,14.58
2019-03-22T11:30:13.355Z,14.79
2019-03-22T11:34:38.313Z,14.96
2019-03-22T11:38:43.449Z,15.12
2019-03-22T11:43:25.682Z,15.22
2019-03-22T11:48:00.580Z,15.30
2019-03-22T11:52:06.815Z,15.38
2019-03-22T11:56:22.071Z,15.49
2019-03-22T12:00:28.246Z,15.53
2019-03-22T12:04:34.043Z,15.58
2019-03-22T12:08:39.508Z,15.75
2019-03-22T12:17:43.049Z,16.17
2019-03-22T12:21:48.300Z,16.30
2019-03-22T12:25:53.949Z,16.08
2019-03-22T12:29:59.265Z,15.96
2019-03-22T12:34:04.617Z,16.01
2019-03-22T12:38:09.691Z,15.95
2019-03-22T12:42:14.677Z,15.89
2019-03-22T12:46:19.665Z,15.99
2019-03-22T12:50:25.413Z,16.03
2019-03-22T12:54:32.165Z,16.12
2019-03-22T12:58:37.765Z,16.22
2019-03-22T13:02:43.217Z,16.27
2019-03-22T13:06:48.371Z,16.26
2019-03-22T13:10:59.214Z,16.30
2019-03-22T13:15:05.028Z,16.38
2019-03-22T13:19:09.976Z,16.37
2019-03-22T13:23:15.148Z,16.44
2019-03-22T13:27:20.444Z,16.52
2019-03-22T13:31:26.114Z,16.62
2019-03-22T13:35:31.354Z,16.67
2019-03-22T13:39:36.243Z,16.77
2019-03-22T13:43:41.164Z,16.89
2019-03-22T13:47:46.462Z,16.88
2019-03-22T13:51:54.961Z,16.80
2019-03-22T13:56:00.376Z,16.70
2019-03-22T14:00:08.460Z,16.73
2019-03-22T14:10:24.017Z,16.84
2019-03-22T14:14:57.677Z,16.95
2019-03-22T14:24:12.859Z,17.01
2019-03-22T14:28:46.894Z,17.02
2019-03-22T14:32:51.987Z,17.04
2019-03-22T14:36:57.203Z,17.01
2019-03-22T14:41:02.785Z,17.06
2019-03-22T14:45:08.242Z,17.10
2019-03-22T14:49:13.189Z,17.14
2019-03-22T14:53:18.190Z,17.18
2019-03-22T14:57:23.288Z,17.17
2019-03-22T15:01:28.673Z,17.19
2019-03-22T15:05:33.671Z,17.20
2019-03-22T15:09:38.529Z,17.14
2019-03-22T15:13:52.531Z,17.05
2019-03-22T15:18:15.402Z,17.11
2019-03-22T15:22:42.603Z,17.12
2019-03-22T15:27:12.675Z,17.06
2019-03-22T15:31:54.486Z,16.99
2019-03-22T15:36:46.017Z,16.94
2019-03-22T15:40:51.943Z,17.00
2019-03-22T15:44:57.354Z,17.07
2019-03-22T15:49:02.602Z,17.10
2019-03-22T15:53:07.855Z,17.12
2019-03-22T15:57:13.101Z,17.16
2019-03-22T16:01:18.352Z,17.17
2019-03-22T16:05:23.491Z,17.17
2019-03-22T16:09:28.837Z,17.10
2019-03-22T16:13:35.507Z,17.06
2019-03-22T16:17:40.883Z,17.06
2019-03-22T16:21:46.111Z,17.10
2019-03-22T16:25:50.911Z,17.10
2019-03-22T16:29:56.086Z,17.11
2019-03-22T16:34:01.561Z,17.10
2019-03-22T16:38:07.581Z,17.07
2019-03-22T16:42:12.988Z,17.05
2019-03-22T16:46:17.980Z,17.01
2019-03-22T16:50:27.079Z,16.97
2019-03-22T17:05:20.312Z,16.86
2019-03-22T17:09:27.362Z,16.79
2019-03-22T17:14:07.506Z,16.70
2019-03-22T17:18:13.592Z,16.59
2019-03-22T17:27:49.365Z,16.42
2019-03-22T17:41:11.409Z,16.23
2019-03-22T18:30:20.130Z,15.05
2019-03-22T18:35:35.183Z,14.93
2019-03-22T18:44:42.658Z,14.65
2019-03-22T19:04:32.557Z,14.22
2019-03-22T19:09:24.583Z,14.12
2019-03-22T19:42:57.328Z,13.40
2019-03-22T20:03:19.537Z,12.88
2019-03-22T20:12:28.153Z,12.37
2019-03-22T20:17:19.655Z,12.23
2019-03-22T20:25:57.411Z,12.15
2019-03-22T20:30:03.083Z,12.15
2019-03-22T20:34:07.849Z,12.18
2019-03-22T20:38:12.814Z,12.14
2019-03-22T20:42:17.901Z,12.14
2019-03-22T20:46:22.870Z,12.08
2019-03-22T20:50:35.420Z,12.01
2019-03-22T20:54:34.294Z,11.99
2019-03-22T20:58:39.044Z,11.97
2019-03-22T21:02:44.157Z,11.89
2019-03-22T21:06:48.987Z,11.89
2019-03-22T21:10:54.153Z,11.79
2019-03-22T21:14:58.932Z,11.79
2019-03-22T21:19:03.743Z,11.78
2019-03-22T21:23:08.549Z,11.71
2019-03-22T21:27:15.844Z,11.71
2019-03-22T21:31:19.812Z,11.67
2019-03-22T21:35:24.859Z,11.64
2019-03-22T21:39:29.624Z,11.64
2019-03-22T21:43:34.583Z,11.65
2019-03-22T21:47:39.890Z,11.62
2019-03-22T21:51:44.598Z,11.58
2019-03-22T21:55:49.785Z,11.53
2019-03-22T21:59:54.534Z,11.47
2019-03-22T22:03:59.324Z,11.35
2019-03-22T22:08:04.115Z,11.21
2019-03-22T22:12:08.985Z,11.08
2019-03-22T22:16:14.157Z,11.00
2019-03-22T22:20:28.400Z,10.97
2019-03-22T22:24:25.434Z,10.97
2019-03-22T22:28:30.220Z,10.95
2019-03-22T22:32:34.976Z,10.95
2019-03-22T22:36:39.758Z,10.88
2019-03-22T22:40:44.673Z,10.78
2019-03-22T22:44:49.438Z,10.67
2019-03-22T22:48:54.808Z,10.63
2019-03-22T22:52:59.601Z,10.61
2019-03-22T22:57:04.817Z,10.52
2019-03-22T23:01:09.945Z,10.44
2019-03-22T23:05:15.020Z,10.39
2019-03-22T23:09:19.812Z,10.36
2019-03-22T23:13:24.555Z,10.36
2019-03-22T23:17:29.382Z,10.35
2019-03-22T23:21:34.316Z,10.31
2019-03-22T23:25:39.182Z,10.30
2019-03-22T23:29:44.032Z,10.29
2019-03-22T23:33:48.843Z,10.25
2019-03-22T23:37:53.566Z,10.18
2019-03-22T23:41:58.399Z,10.11
2019-03-22T23:46:03.209Z,9.95
2019-03-22T23:50:08.263Z,9.85
2019-03-22T23:54:13.069Z,9.82
2019-03-22T23:58:18.116Z,9.83
